createdAt,value
2023-05-11T00:02:07.836Z,12.98
2023-05-11T00:04:36.239Z,12.96
2023-05-11T00:07:06.134Z,12.90
2023-05-11T00:09:35.533Z,12.92
2023-05-11T00:12:03.974Z,12.90
2023-05-11T00:14:32.274Z,12.87
2023-05-11T00:17:00.465Z,12.85
2023-05-11T00:19:31.537Z,12.81
2023-05-11T00:21:59.940Z,12.81
2023-05-11T00:24:30.402Z,12.84
2023-05-11T00:26:58.546Z,12.83
2023-05-11T00:29:27.029Z,12.83
2023-05-11T00:31:55.130Z,12.79
2023-05-11T00:34:23.368Z,12.83
2023-05-11T00:36:51.613Z,12.81
2023-05-11T00:39:19.801Z,12.86
2023-05-11T00:41:49.847Z,12.89
2023-05-11T00:44:18.059Z,12.88
2023-05-11T00:46:46.303Z,12.85
2023-05-11T00:49:17.428Z,12.84
2023-05-11T00:51:45.700Z,12.86
2023-05-11T00:54:15.752Z,12.86
2023-05-11T00:56:43.972Z,12.84
2023-05-11T00:59:14.232Z,12.78
2023-05-11T01:01:42.614Z,12.73
2023-05-11T01:04:11.513Z,12.71
2023-05-11T01:06:52.819Z,12.72
2023-05-11T01:09:30.753Z,12.69
2023-05-11T01:12:09.296Z,12.69
2023-05-11T01:14:47.307Z,12.63
2023-05-11T01:17:24.138Z,12.59
2023-05-11T01:19:58.574Z,12.60
2023-05-11T01:22:40.116Z,12.59
2023-05-11T01:25:19.791Z,12.58
2023-05-11T01:28:24.547Z,12.56
2023-05-11T01:30:58.082Z,12.60
2023-05-11T01:33:32.702Z,12.61
2023-05-11T01:36:07.016Z,12.66
2023-05-11T01:38:37.739Z,12.69
2023-05-11T01:41:13.593Z,12.67
2023-05-11T01:43:43.236Z,12.68
2023-05-11T01:46:15.891Z,12.66
2023-05-11T01:48:48.243Z,12.64
2023-05-11T01:51:19.833Z,12.61
2023-05-11T01:53:48.108Z,12.48
2023-05-11T01:56:18.274Z,12.49
2023-05-11T01:58:47.709Z,12.45
2023-05-11T02:01:18.860Z,12.42
2023-05-11T02:03:49.704Z,12.36
2023-05-11T02:06:21.345Z,12.34
2023-05-11T02:08:51.808Z,12.27
2023-05-11T02:11:22.098Z,12.27
2023-05-11T02:13:53.077Z,12.27
2023-05-11T02:16:23.531Z,12.27
2023-05-11T02:18:53.340Z,12.25
2023-05-11T02:21:23.256Z,12.26
2023-05-11T02:23:53.098Z,12.25
2023-05-11T02:26:22.103Z,12.24
2023-05-11T02:28:50.461Z,12.23
2023-05-11T02:31:22.403Z,12.20
2023-05-11T02:33:54.773Z,12.22
2023-05-11T02:36:26.409Z,12.22
2023-05-11T02:38:59.814Z,12.22
2023-05-11T02:41:30.766Z,12.20
2023-05-11T02:44:04.555Z,12.22
2023-05-11T02:46:37.693Z,12.21
2023-05-11T02:49:10.492Z,12.26
2023-05-11T02:51:40.215Z,12.28
2023-05-11T02:54:11.081Z,12.31
2023-05-11T02:56:40.392Z,12.33
2023-05-11T02:59:08.691Z,12.35
2023-05-11T03:01:37.449Z,12.36
2023-05-11T03:04:08.035Z,12.39
2023-05-11T03:06:38.062Z,12.41
2023-05-11T03:09:09.949Z,12.40
2023-05-11T03:11:39.268Z,12.43
2023-05-11T03:14:07.902Z,12.42
2023-05-11T03:16:38.807Z,12.43
2023-05-11T03:19:09.704Z,12.44
2023-05-11T03:21:39.643Z,12.46
2023-05-11T03:24:09.251Z,12.46
2023-05-11T03:26:38.191Z,12.43
2023-05-11T03:29:08.826Z,12.43
2023-05-11T03:31:37.268Z,12.44
2023-05-11T03:34:05.547Z,12.46
2023-05-11T03:36:35.346Z,12.48
2023-05-11T03:39:04.762Z,12.48
2023-05-11T03:41:35.560Z,12.47
2023-05-11T03:44:07.643Z,12.46
2023-05-11T03:46:40.122Z,12.47
2023-05-11T03:49:11.395Z,12.49
2023-05-11T03:51:43.132Z,12.52
2023-05-11T03:54:11.718Z,12.48
2023-05-11T03:56:40.517Z,12.46
2023-05-11T03:59:09.719Z,12.47
2023-05-11T04:01:38.238Z,12.51
2023-05-11T04:04:06.983Z,12.45
2023-05-11T04:06:35.500Z,12.45
2023-05-11T04:09:05.590Z,12.44
2023-05-11T04:11:38.256Z,12.39
2023-05-11T04:14:06.689Z,12.44
2023-05-11T04:16:35.076Z,12.42
2023-05-11T04:19:03.511Z,12.41
2023-05-11T04:21:32.788Z,12.36
2023-05-11T04:24:00.942Z,12.37
2023-05-11T04:26:30.540Z,12.37
2023-05-11T04:28:58.751Z,12.38
2023-05-11T04:31:26.973Z,12.38
2023-05-11T04:33:55.121Z,12.32
2023-05-11T04:36:23.558Z,12.32
2023-05-11T04:38:53.341Z,12.32
2023-05-11T04:41:22.493Z,12.36
2023-05-11T04:43:52.196Z,12.34
2023-05-11T04:46:20.313Z,12.35
2023-05-11T04:48:48.826Z,12.36
2023-05-11T04:51:17.549Z,12.32
2023-05-11T04:53:45.842Z,12.32
2023-05-11T04:56:13.903Z,12.33
2023-05-11T04:58:42.168Z,12.36
2023-05-11T05:01:11.770Z,12.39
2023-05-11T05:03:40.029Z,12.37
2023-05-11T05:06:08.428Z,12.39
2023-05-11T05:08:36.602Z,12.38
2023-05-11T05:11:04.730Z,12.39
2023-05-11T05:13:32.938Z,12.41
2023-05-11T05:16:01.217Z,12.44
2023-05-11T05:18:30.948Z,12.42
2023-05-11T05:20:59.202Z,12.45
2023-05-11T05:23:27.526Z,12.44
2023-05-11T05:25:55.799Z,12.50
2023-05-11T05:28:23.999Z,12.48
2023-05-11T05:30:52.250Z,12.48
2023-05-11T05:33:20.459Z,12.49
2023-05-11T05:35:49.982Z,12.54
2023-05-11T05:38:18.469Z,12.54
2023-05-11T05:40:46.510Z,12.59
2023-05-11T05:43:14.722Z,12.58
2023-05-11T05:45:43.060Z,12.61
2023-05-11T05:48:11.263Z,12.62
2023-05-11T05:50:39.477Z,12.62
2023-05-11T05:53:09.061Z,12.63
2023-05-11T05:55:37.170Z,12.65
2023-05-11T05:58:05.474Z,12.64
2023-05-11T06:00:33.724Z,12.66
2023-05-11T06:03:02.085Z,12.73
2023-05-11T06:05:30.378Z,12.79
2023-05-11T06:08:09.744Z,12.86
2023-05-11T06:10:40.551Z,12.84
2023-05-11T06:13:09.720Z,12.85
2023-05-11T06:15:37.947Z,12.96
2023-05-11T06:18:06.825Z,12.91
2023-05-11T06:20:35.086Z,12.95
2023-05-11T06:23:03.272Z,12.98
2023-05-11T06:25:31.940Z,12.99
2023-05-11T06:28:01.446Z,12.94
2023-05-11T06:30:29.896Z,12.99
2023-05-11T06:32:58.354Z,12.99
2023-05-11T06:35:26.959Z,13.05
2023-05-11T06:37:55.045Z,13.14
2023-05-11T06:40:23.334Z,13.22
2023-05-11T06:42:52.005Z,13.26
2023-05-11T06:45:21.763Z,13.34
2023-05-11T06:47:50.133Z,13.38
2023-05-11T06:50:20.948Z,13.44
2023-05-11T06:52:49.598Z,13.53
2023-05-11T06:55:17.854Z,13.55
2023-05-11T06:57:46.778Z,13.55
2023-05-11T07:00:16.090Z,13.47
2023-05-11T07:02:45.836Z,13.45
2023-05-11T07:05:14.098Z,13.40
2023-05-11T07:07:42.198Z,13.48
2023-05-11T07:10:11.557Z,13.67
2023-05-11T07:12:39.733Z,13.82
2023-05-11T07:15:09.427Z,13.84
2023-05-11T07:17:37.784Z,13.86
2023-05-11T07:20:09.006Z,13.77
2023-05-11T07:22:37.190Z,13.63
2023-05-11T07:25:05.804Z,13.57
2023-05-11T07:27:34.914Z,13.56
2023-05-11T07:30:03.754Z,13.51
2023-05-11T07:32:32.679Z,13.56
2023-05-11T07:35:00.992Z,13.55
2023-05-11T07:37:30.699Z,13.55
2023-05-11T07:39:58.969Z,13.60
2023-05-11T07:42:27.564Z,13.66
2023-05-11T07:44:55.854Z,13.75
2023-05-11T07:47:25.032Z,13.76
2023-05-11T07:49:53.357Z,13.81
2023-05-11T07:52:21.949Z,13.80
2023-05-11T07:54:51.622Z,13.92
2023-05-11T07:57:20.793Z,14.00
2023-05-11T07:59:48.975Z,13.93
2023-05-11T08:02:19.008Z,13.93
2023-05-11T08:04:48.325Z,13.99
2023-05-11T08:07:16.632Z,13.96
2023-05-11T08:09:45.256Z,14.09
2023-05-11T08:12:15.680Z,14.08
2023-05-11T08:14:44.320Z,14.12
2023-05-11T08:17:12.379Z,14.19
2023-05-11T08:19:40.609Z,14.27
2023-05-11T08:22:09.207Z,14.36
2023-05-11T08:24:38.210Z,14.62
2023-05-11T08:27:06.441Z,14.93
2023-05-11T08:29:36.079Z,15.04
2023-05-11T08:32:04.436Z,15.08
2023-05-11T08:34:32.924Z,15.21
2023-05-11T08:37:01.999Z,15.39
2023-05-11T08:39:46.058Z,15.48
2023-05-11T08:42:17.643Z,15.48
2023-05-11T08:44:49.311Z,15.51
2023-05-11T08:47:23.256Z,15.57
2023-05-11T08:49:53.107Z,15.67
2023-05-11T08:52:21.760Z,15.79
2023-05-11T08:54:50.100Z,15.83
2023-05-11T08:57:19.139Z,15.92
2023-05-11T08:59:50.662Z,15.98
2023-05-11T09:02:21.671Z,16.06
2023-05-11T09:04:51.956Z,16.14
2023-05-11T09:07:20.751Z,16.15
2023-05-11T09:09:49.147Z,16.14
2023-05-11T09:12:17.742Z,16.10
2023-05-11T09:14:47.214Z,16.18
2023-05-11T09:17:16.815Z,16.23
2023-05-11T09:20:02.058Z,16.34
2023-05-11T09:22:32.574Z,16.18
2023-05-11T09:25:04.137Z,16.01
2023-05-11T09:27:32.512Z,15.90
2023-05-11T09:30:12.710Z,15.79
2023-05-11T09:32:53.347Z,15.78
2023-05-11T09:35:28.857Z,15.84
2023-05-11T09:38:02.518Z,15.91
2023-05-11T09:40:34.778Z,16.01
2023-05-11T09:43:03.908Z,15.99
2023-05-11T09:45:42.563Z,15.83
2023-05-11T09:48:27.100Z,15.73
2023-05-11T09:51:03.812Z,15.53
2023-05-11T09:53:43.936Z,15.44
2023-05-11T09:56:15.780Z,15.39
2023-05-11T09:58:49.757Z,15.37
2023-05-11T10:01:19.516Z,15.47
2023-05-11T10:03:52.090Z,15.60
2023-05-11T10:06:20.975Z,15.81
2023-05-11T10:08:50.210Z,16.27
2023-05-11T10:11:18.662Z,16.53
2023-05-11T10:13:47.102Z,16.45
2023-05-11T10:16:17.812Z,16.28
2023-05-11T10:18:47.032Z,16.01
2023-05-11T10:21:18.418Z,15.86
2023-05-11T10:23:46.796Z,15.55
2023-05-11T10:26:15.870Z,15.40
2023-05-11T10:28:44.519Z,15.37
2023-05-11T10:31:13.600Z,15.26
2023-05-11T10:33:43.422Z,15.37
2023-05-11T10:36:12.586Z,15.69
2023-05-11T10:38:48.622Z,16.05
2023-05-11T10:41:35.476Z,16.40
2023-05-11T10:44:46.708Z,16.57
2023-05-11T10:47:45.054Z,16.71
2023-05-11T10:50:24.524Z,16.85
2023-05-11T10:53:22.816Z,16.79
2023-05-11T10:56:17.963Z,16.68
2023-05-11T10:59:07.704Z,16.68
2023-05-11T11:01:41.049Z,16.86
2023-05-11T11:04:11.277Z,17.07
2023-05-11T11:06:41.816Z,17.19
2023-05-11T11:09:13.349Z,17.46
2023-05-11T11:11:46.269Z,17.78
2023-05-11T11:14:16.364Z,17.77
2023-05-11T11:17:29.196Z,17.54
2023-05-11T11:19:57.564Z,17.26
2023-05-11T11:22:47.423Z,16.93
2023-05-11T11:25:28.762Z,16.70
2023-05-11T11:28:00.259Z,16.50
2023-05-11T11:30:30.798Z,16.23
2023-05-11T11:33:33.155Z,16.03
2023-05-11T11:36:01.787Z,15.91
2023-05-11T11:38:33.224Z,15.78
2023-05-11T11:41:01.408Z,15.68
2023-05-11T11:43:46.238Z,15.59
2023-05-11T11:46:28.286Z,15.54
2023-05-11T11:49:09.437Z,15.47
2023-05-11T11:51:40.507Z,15.40
2023-05-11T11:54:09.717Z,15.24
2023-05-11T11:56:40.380Z,15.07
2023-05-11T11:59:15.440Z,15.01
2023-05-11T12:01:46.020Z,14.99
2023-05-11T12:04:40.899Z,14.95
2023-05-11T12:07:11.523Z,14.94
2023-05-11T12:09:41.406Z,15.01
2023-05-11T12:12:11.433Z,15.08
2023-05-11T12:14:49.147Z,15.19
2023-05-11T12:17:25.536Z,15.31
2023-05-11T12:19:53.972Z,15.42
2023-05-11T12:22:25.739Z,15.55
2023-05-11T12:24:59.642Z,15.69
2023-05-11T12:27:28.442Z,15.80
2023-05-11T12:29:58.809Z,15.87
2023-05-11T12:32:29.233Z,15.91
2023-05-11T12:35:02.657Z,15.92
2023-05-11T12:37:32.005Z,15.86
2023-05-11T12:40:00.651Z,15.80
2023-05-11T12:42:29.240Z,15.71
2023-05-11T12:44:59.071Z,15.63
2023-05-11T12:47:27.502Z,15.47
2023-05-11T12:49:56.361Z,15.31
2023-05-11T12:52:25.604Z,15.27
2023-05-11T12:54:55.204Z,15.19
2023-05-11T12:57:28.404Z,15.06
2023-05-11T13:00:13.105Z,14.89
2023-05-11T13:02:52.487Z,14.75
2023-05-11T13:05:25.397Z,14.66
2023-05-11T13:07:58.911Z,14.51
2023-05-11T13:10:28.011Z,14.48
2023-05-11T13:12:56.802Z,14.47
2023-05-11T13:15:28.783Z,14.46
2023-05-11T13:17:59.219Z,14.47
2023-05-11T13:20:29.968Z,14.53
2023-05-11T13:23:06.350Z,14.63
2023-05-11T13:25:35.721Z,14.72
2023-05-11T13:28:04.163Z,14.79
2023-05-11T13:30:35.090Z,14.87
2023-05-11T13:33:03.853Z,15.02
2023-05-11T13:35:32.149Z,15.19
2023-05-11T13:38:00.550Z,15.27
2023-05-11T13:40:28.838Z,15.54
2023-05-11T13:42:57.420Z,15.87
2023-05-11T13:45:25.727Z,16.22
2023-05-11T13:47:56.060Z,16.37
2023-05-11T13:50:24.526Z,16.40
2023-05-11T13:52:53.176Z,16.45
2023-05-11T13:55:22.186Z,16.25
2023-05-11T13:57:50.520Z,16.18
2023-05-11T14:00:19.699Z,16.02
2023-05-11T14:02:50.718Z,15.88
2023-05-11T14:05:20.553Z,15.73
2023-05-11T14:07:49.306Z,15.54
2023-05-11T14:10:18.172Z,15.45
2023-05-11T14:12:46.789Z,15.39
2023-05-11T14:15:15.087Z,15.36
2023-05-11T14:17:43.605Z,15.43
2023-05-11T14:20:13.441Z,15.56
2023-05-11T14:22:43.270Z,15.68
2023-05-11T14:25:11.974Z,15.82
2023-05-11T14:27:40.152Z,15.96
2023-05-11T14:30:09.666Z,16.03
2023-05-11T14:32:38.004Z,16.12
2023-05-11T14:35:07.035Z,16.17
2023-05-11T14:37:35.759Z,16.24
2023-05-11T14:40:06.445Z,16.40
2023-05-11T14:42:34.593Z,16.60
2023-05-11T14:45:02.799Z,16.74
2023-05-11T14:47:31.111Z,16.84
2023-05-11T14:49:59.389Z,16.91
2023-05-11T14:52:27.567Z,16.99
2023-05-11T14:54:55.847Z,17.08
2023-05-11T14:57:25.473Z,17.09
2023-05-11T14:59:59.565Z,17.10
2023-05-11T15:02:29.794Z,17.14
2023-05-11T15:04:58.111Z,17.17
2023-05-11T15:07:26.914Z,17.10
2023-05-11T15:09:56.045Z,17.10
2023-05-11T15:12:25.943Z,16.99
2023-05-11T15:14:54.300Z,16.82
2023-05-11T15:17:22.588Z,16.83
2023-05-11T15:19:50.964Z,16.79
2023-05-11T15:22:19.312Z,16.78
2023-05-11T15:24:47.596Z,16.74
2023-05-11T15:27:15.739Z,16.66
2023-05-11T15:29:45.332Z,16.55
2023-05-11T15:32:15.721Z,16.51
2023-05-11T15:34:55.180Z,16.51
2023-05-11T15:37:27.200Z,16.57
2023-05-11T15:39:55.363Z,16.58
2023-05-11T15:42:23.744Z,16.54
2023-05-11T15:44:53.579Z,16.48
2023-05-11T15:47:21.890Z,16.42
2023-05-11T15:49:50.447Z,16.31
2023-05-11T15:52:18.658Z,16.29
2023-05-11T15:54:47.184Z,16.23
2023-05-11T15:57:15.457Z,16.20
2023-05-11T15:59:43.641Z,16.13
2023-05-11T16:02:13.381Z,16.12
2023-05-11T16:04:41.911Z,16.00
2023-05-11T16:07:10.333Z,16.01
2023-05-11T16:09:38.554Z,15.96
2023-05-11T16:12:07.402Z,15.95
2023-05-11T16:14:35.676Z,15.90
2023-05-11T16:17:04.165Z,15.87
2023-05-11T16:19:33.965Z,15.73
2023-05-11T16:22:02.306Z,15.55
2023-05-11T16:24:34.399Z,15.41
2023-05-11T16:27:03.294Z,15.37
2023-05-11T16:29:32.218Z,15.36
2023-05-11T16:32:00.833Z,15.37
2023-05-11T16:34:29.249Z,15.37
2023-05-11T16:36:59.332Z,15.29
2023-05-11T16:39:27.810Z,15.28
2023-05-11T16:41:56.195Z,15.26
2023-05-11T16:44:24.962Z,15.22
2023-05-11T16:46:53.613Z,15.16
2023-05-11T16:49:21.856Z,15.09
2023-05-11T16:51:50.136Z,15.08
2023-05-11T16:54:20.067Z,15.06
2023-05-11T16:56:48.718Z,15.04
2023-05-11T16:59:16.890Z,15.02
2023-05-11T17:01:46.120Z,15.00
2023-05-11T17:04:14.566Z,14.97
2023-05-11T17:06:42.820Z,14.81
2023-05-11T17:09:11.366Z,14.73
2023-05-11T17:11:40.998Z,14.70
2023-05-11T17:14:09.194Z,14.67
2023-05-11T17:16:37.447Z,14.63
2023-05-11T17:19:05.779Z,14.53
2023-05-11T17:21:34.120Z,14.47
2023-05-11T17:24:02.280Z,14.45
2023-05-11T17:26:43.340Z,14.41
2023-05-11T17:29:17.411Z,14.34
2023-05-11T17:31:46.713Z,14.33
2023-05-11T17:34:15.096Z,14.37
2023-05-11T17:36:43.227Z,14.38
2023-05-11T17:39:11.583Z,14.40
2023-05-11T17:41:39.839Z,14.37
2023-05-11T17:44:08.336Z,14.33
2023-05-11T17:46:38.466Z,14.27
2023-05-11T17:49:07.344Z,14.22
2023-05-11T17:51:35.634Z,14.21
2023-05-11T17:54:03.955Z,14.21
2023-05-11T17:56:32.938Z,14.20
2023-05-11T17:59:01.121Z,14.22
2023-05-11T18:01:29.377Z,14.20
2023-05-11T18:04:01.591Z,14.21
2023-05-11T18:06:30.348Z,14.17
2023-05-11T18:09:00.112Z,14.16
2023-05-11T18:11:28.510Z,14.13
2023-05-11T18:13:57.153Z,14.15
2023-05-11T18:16:25.395Z,14.16
2023-05-11T18:18:53.776Z,14.15
2023-05-11T18:21:23.656Z,14.13
2023-05-11T18:23:51.994Z,14.14
2023-05-11T18:26:21.662Z,14.13
2023-05-11T18:28:50.004Z,14.15
2023-05-11T18:31:19.271Z,14.11
2023-05-11T18:33:47.507Z,14.12
2023-05-11T18:36:15.947Z,14.03
2023-05-11T18:38:45.665Z,13.99
2023-05-11T18:41:14.140Z,14.01
2023-05-11T18:43:43.804Z,13.99
2023-05-11T18:46:12.357Z,13.94
2023-05-11T18:48:40.485Z,13.87
2023-05-11T18:51:08.864Z,13.85
2023-05-11T18:53:37.100Z,13.84
2023-05-11T18:56:06.784Z,13.86
2023-05-11T18:58:35.088Z,13.85
2023-05-11T19:01:03.974Z,13.83
2023-05-11T19:03:32.491Z,13.83
2023-05-11T19:06:02.070Z,13.86
2023-05-11T19:08:31.022Z,13.81
2023-05-11T19:10:59.308Z,13.79
2023-05-11T19:13:29.252Z,13.79
2023-05-11T19:15:57.387Z,13.74
2023-05-11T19:18:25.729Z,13.71
2023-05-11T19:20:54.093Z,13.70
2023-05-11T19:23:22.270Z,13.70
2023-05-11T19:25:50.789Z,13.66
2023-05-11T19:28:19.031Z,13.65
2023-05-11T19:30:48.513Z,13.63
2023-05-11T19:33:16.793Z,13.58
2023-05-11T19:35:45.036Z,13.57
2023-05-11T19:38:13.147Z,13.52
2023-05-11T19:43:12.651Z,13.51
2023-05-11T19:45:43.575Z,13.50
2023-05-11T19:48:14.012Z,13.46
2023-05-11T19:50:42.523Z,13.46
2023-05-11T19:53:10.829Z,13.45
2023-05-11T19:55:40.294Z,13.40
2023-05-11T19:58:08.644Z,13.37
2023-05-11T20:00:37.080Z,13.34
2023-05-11T20:03:05.731Z,13.34
2023-05-11T20:05:35.534Z,13.34
2023-05-11T20:08:06.041Z,13.37
2023-05-11T20:10:34.752Z,13.40
2023-05-11T20:13:04.078Z,13.40
2023-05-11T20:15:34.145Z,13.41
2023-05-11T20:18:03.187Z,13.43
2023-05-11T20:20:32.690Z,13.43
2023-05-11T20:23:02.545Z,13.40
2023-05-11T20:25:31.029Z,13.39
2023-05-11T20:27:59.188Z,13.37
2023-05-11T20:30:27.300Z,13.35
2023-05-11T20:35:26.930Z,13.31
2023-05-11T20:37:55.690Z,13.29
2023-05-11T20:40:25.791Z,13.31
2023-05-11T20:42:53.901Z,13.29
2023-05-11T20:45:22.341Z,13.25
2023-05-11T20:47:50.529Z,13.22
2023-05-11T20:50:18.884Z,13.22
2023-05-11T20:52:47.520Z,13.21
2023-05-11T20:55:16.311Z,13.19
2023-05-11T20:57:46.095Z,13.18
2023-05-11T21:00:16.324Z,13.16
2023-05-11T21:02:45.979Z,13.13
2023-05-11T21:05:14.268Z,13.13
2023-05-11T21:07:42.439Z,13.11
2023-05-11T21:10:12.659Z,13.09
2023-05-11T21:12:40.879Z,13.07
2023-05-11T21:15:11.992Z,13.04
2023-05-11T21:17:40.275Z,13.01
2023-05-11T21:20:09.749Z,12.99
2023-05-11T21:22:38.596Z,12.98
2023-05-11T21:25:07.839Z,12.98
2023-05-11T21:27:36.631Z,12.93
2023-05-11T21:30:05.829Z,12.92
2023-05-11T21:32:35.345Z,12.90
2023-05-11T21:35:04.077Z,12.88
2023-05-11T21:37:35.695Z,12.87
2023-05-11T21:40:04.213Z,12.86
2023-05-11T21:42:34.932Z,12.82
2023-05-11T21:45:03.636Z,12.80
2023-05-11T21:47:31.866Z,12.80
2023-05-11T21:50:01.562Z,12.78
2023-05-11T21:52:29.921Z,12.74
2023-05-11T21:54:58.016Z,12.71
2023-05-11T21:57:26.376Z,12.69
2023-05-11T21:59:54.531Z,12.68
2023-05-11T22:02:22.812Z,12.66
2023-05-11T22:04:50.962Z,12.63
2023-05-11T22:07:21.123Z,12.62
2023-05-11T22:09:49.343Z,12.60
2023-05-11T22:12:18.061Z,12.58
2023-05-11T22:14:46.306Z,12.54
2023-05-11T22:17:14.421Z,12.53
2023-05-11T22:19:42.538Z,12.50
2023-05-11T22:22:10.756Z,12.49
2023-05-11T22:24:40.347Z,12.47
2023-05-11T22:27:10.058Z,12.46
2023-05-11T22:29:38.215Z,12.43
2023-05-11T22:32:07.742Z,12.43
2023-05-11T22:34:36.361Z,12.34
2023-05-11T22:37:05.354Z,12.38
2023-05-11T22:39:33.796Z,12.43
2023-05-11T22:42:03.634Z,12.44
2023-05-11T22:44:31.902Z,12.42
2023-05-11T22:47:00.253Z,12.37
2023-05-11T22:49:28.895Z,12.31
2023-05-11T22:51:59.732Z,12.32
2023-05-11T22:54:28.193Z,12.25
2023-05-11T22:56:57.409Z,12.31
2023-05-11T22:59:27.352Z,12.31
2023-05-11T23:02:01.644Z,12.30
2023-05-11T23:04:31.042Z,12.27
2023-05-11T23:06:59.550Z,12.25
2023-05-11T23:09:27.874Z,12.24
2023-05-11T23:11:56.096Z,12.24
2023-05-11T23:14:24.945Z,12.24
2023-05-11T23:16:54.391Z,12.27
2023-05-11T23:19:22.594Z,12.30
2023-05-11T23:21:50.728Z,12.30
2023-05-11T23:24:18.975Z,12.32
2023-05-11T23:26:47.200Z,12.31
2023-05-11T23:29:15.510Z,12.27
2023-05-11T23:31:43.862Z,12.23
2023-05-11T23:34:13.435Z,12.23
2023-05-11T23:36:42.198Z,12.21
2023-05-11T23:39:10.330Z,12.19
2023-05-11T23:41:39.152Z,12.19
2023-05-11T23:44:07.462Z,12.18
2023-05-11T23:46:36.264Z,12.15
2023-05-11T23:49:05.027Z,12.14
2023-05-11T23:51:34.610Z,12.13
2023-05-11T23:54:02.810Z,12.16
2023-05-11T23:56:31.115Z,12.18
2023-05-11T23:58:59.299Z,12.21
